Main page
METAR-TAF:

METAR-TAF

Airports :

Nuremberg, Germany

Nuremberg Airport

latitude: 49-30N, longitude: 011-03E, elevation: 318 m

Current weather observation

The report was made 36 minutes ago, at 13:50 UTC
Wind 5 kt from variable directions
Temperature 29°C
Humidity 25%
Pressure 1019 hPa
Visibility 10 km or more
no clouds below 1500 m and no cumulonimbus

METAR: EDDN 281350Z VRB05KT CAVOK 29/07 Q1019 NOSIG

Time: 16:26 (14:26 UTC)

Forecast

The report was made 3 hours and 26 minutes ago, at 11:00 UTC
Forecast valid from 28 at 12 UTC to 29 at 12 UTC
Wind 8 kt from the South/Southeast
Visibility 10 km or more
no clouds below 1500 m and no cumulonimbus
Becoming
from 28 at 17 UTC to 28 at 19 UTC
Wind 5 kt from the East
Becoming
from 29 at 10 UTC to 29 at 12 UTC
Wind 5 kt from the West/Southwest

TAF: EDDN 281100Z 2812/2912 16008KT CAVOK BECMG 2817/2819 10005KT BECMG 2910/2912 25005KT

Weather observations and forecasts of more than 4000 airports (METAR and TAF reports).

The available stations are represented by yellow and red dots on the map.

Hover mouse over dot to see the name of the station.

Then click to see weather observations and forecasts.

To change the map : click on the green buttons with a black cross to zoom in, on the green button with a dash to zoom out, or on the green arrows for adjacent maps.


METAR-TAF: